Ana Sayfa
METAR-TAF:

METAR-TAF

Havaalanları :

Koror, Babeldaob, Palau

Enlem: 07-22N, Boylam: 134-32E, yükseklik: 54 m

Güncel hava durumu gözlemi

Rapor saat 18:50 UTC de 37 dakika önce yapıldı.
Sakin rüzgar
Sıcaklık
Basınç 1006 hPa
Görüş mesafesi: 22.5 km
1600 ft yükseklikte parçalı çok bulutlu, Kümülonimbus.
29000 ft yükseklikte çok bulutlu

METAR: PTRO 191850Z 00000KT 14SM BKN016CB OVC290 5/24 A2972

Saat: 04:27 (19:27 UTC)

Tahmin

Rapor saat 17:20 UTC de 2 saat ve 7 dakika önce yapıldı.
Ayın 19'si saat 18 UTC'den ayın 20'si saat 18 UTC'ye kadar geçerli Tahmin
Rüzgar değişken yönden 6 kt
Görüş mesafesi: 10 km
1600 ft yükseklikte parçalı bulutlu
12000 ft yükseklikte parçalı çok bulutlu
Civarda sağanaklar
Geçici
ayın 19'si saat 18 UTC'den ayın 19'si saat 22 UTC'ye kadar
1600 ft yükseklikte parçalı çok bulutlu
3000 ft yükseklikte çok bulutlu
hafif sağanak yağmurlar

TAF: PTRO 191720Z 1918/2018 VRB06KT P6SM VCSH SCT016 BKN120 TEMPO 1918/1922 -SHRA BKN016 OVC030

4.000'den fazla havaalanı için hava durumu gözlemleri ve tahminleri (METAR ve TAF raporları).

Kullanılabilir istasyonlar harita üzerinde sarı ve kırmızı noktalarla gösterilir.

İstasyonun adını görmek için fareyi noktanın üzerinde gezdirin.

Sonrasında hava gözlem ve tahminlerini görmek için tıklayın.

Haritayı değiştirmek için: yaklaştırmak için siyah artı işaretli yeşil düğmeye ve uzaklaştırmak için de eksi işaretli düğmeye hızla tıklayın; bitişik haritalar için yeşil okları kullanın.


METAR-TAF: